Thunderstorms From: 26-05-2018 09:00 Until: 27-05-2018 05:00 warning for: Thunderstorms Level: Yellow info button

Although rather usual in this region, locally or potentially dangerous phenomena are expected. (such as local winds, summer thunderstorms, rising streams or high waves) Be aware and pay attention to the latest weather updates, especially if you carry out activities exposed to weather or close to a stream or shoreline. 


Meteo18 Weather Cam more information Meteo18 Weather Cam


warning for Thunderstorms more information blitzortung!


Rain radar more information rain snow radar


Visit our other weather sites:

Template documentation
and downloads

And another site



Weather Underground History page Text

Daily Summary for May 30, 2017 Units:  English    Metric   Both
« Previous Day
Next Day »
Daily Weekly Monthly Yearly Custom
  High: Low: Average:
Temperature: TemperatureC °F 16.2 °F 19.2 °F
Dew Point: DewpointC °F 14.1 °F 15.9 °F
Humidity: Humidity % 63 % 81 %
Wind Speed: WindSpeedKMH mph 0.0 mph 2.9 mph
Wind Gust: WindSpeedGustKMH mph - -
Wind:- - WSW
Pressure: PressurehPa in 1016.5 in -
Precipitation: 5.3 in    
Historical Graphs
 
 
Tabular Data for May 30, 2017
Time Temperature Dew Point Pressure Wind Wind Speed Wind Gust Humidity Rainfall Rate (Hourly)
TemperatureC °F DewpointC °F PressurehPa in Calm     Humidity % HourlyPrecipMM in
00:02 19.3 °F 14.3 °F 1017.2 in Calm     73 % 0.0 in
00:12 19.3 °F 14.5 °F 1017.2 in Calm     74 % 0.0 in
00:17 19.3 °F 14.8 °F 1017.2 in WNW 1.6 mph   75 % 0.0 in
00:22 19.2 °F 14.7 °F 1016.8 in Calm     75 % 0.0 in
00:32 19.2 °F 14.9 °F 1016.8 in Calm   3.2 mph 76 % 0.0 in
00:42 19.3 °F 15.0 °F 1017.2 in Calm   3.2 mph 76 % 0.0 in
00:52 19.2 °F 15.1 °F 1016.8 in Calm   3.2 mph 77 % 0.0 in
00:57 19.2 °F 15.1 °F 1017.2 in Calm   4.8 mph 77 % 0.0 in
01:02 19.1 °F 15.0 °F 1017.2 in Calm   6.4 mph 77 % 0.0 in
01:07 19.0 °F 15.1 °F 1016.8 in Calm   6.4 mph 78 % 0.0 in
01:12 18.9 °F 15.0 °F 1016.8 in Calm   6.4 mph 78 % 0.0 in
01:17 18.8 °F 14.9 °F 1016.8 in Calm   1.6 mph 78 % 0.0 in
01:22 18.8 °F 14.9 °F 1016.8 in Calm     78 % 0.0 in
01:27 18.8 °F 15.1 °F 1016.8 in Calm     79 % 0.0 in
01:32 18.6 °F 15.1 °F 1016.8 in WNW 1.6 mph 1.6 mph 80 % 0.0 in
01:37 18.3 °F 15.0 °F 1016.8 in WNW 1.6 mph 1.6 mph 81 % 0.0 in
01:42 18.1 °F 15.0 °F 1016.8 in West 1.6 mph 4.8 mph 82 % 0.0 in
01:52 18.3 °F 15.2 °F 1016.8 in Calm   4.8 mph 82 % 0.0 in
01:57 18.3 °F 15.2 °F 1016.5 in Calm   4.8 mph 82 % 0.0 in
02:02 18.3 °F 15.0 °F 1016.5 in Calm   4.8 mph 81 % 0.0 in
02:07 18.2 °F 15.1 °F 1016.5 in Calm   3.2 mph 82 % 0.0 in
02:17 17.9 °F 15.0 °F 1016.5 in West 1.6 mph 1.6 mph 83 % 0.0 in
02:22 18.1 °F 15.0 °F 1016.5 in Calm     82 % 0.0 in
02:32 17.9 °F 15.0 °F 1016.5 in West 1.6 mph 4.8 mph 83 % 0.0 in
02:42 18.1 °F 15.0 °F 1016.5 in Calm   4.8 mph 82 % 0.0 in
02:47 18.1 °F 15.2 °F 1016.5 in Calm   3.2 mph 83 % 0.0 in
02:52 17.9 °F 15.0 °F 1016.5 in Calm   1.6 mph 83 % 0.0 in
02:57 17.8 °F 15.1 °F 1016.5 in SE 1.6 mph 1.6 mph 84 % 0.0 in
03:02 17.7 °F 15.0 °F 1016.5 in SE 1.6 mph 3.2 mph 84 % 0.0 in
03:12 17.8 °F 15.2 °F 1016.5 in Calm   3.2 mph 85 % 0.0 in
03:17 17.8 °F 15.2 °F 1016.5 in SW 3.2 mph 3.2 mph 85 % 0.0 in
03:22 17.7 °F 15.1 °F 1017.2 in SSW 4.8 mph 4.8 mph 85 % 0.0 in
03:32 18.0 °F 15.3 °F 1016.8 in SW 4.8 mph 11.3 mph 84 % 0.0 in
03:42 18.1 °F 15.5 °F 1016.5 in WNW 4.8 mph 11.3 mph 85 % 0.0 in
03:47 17.9 °F 15.5 °F 1016.8 in WSW 4.8 mph 9.7 mph 86 % 0.0 in
03:52 17.7 °F 15.5 °F 1016.8 in West 3.2 mph 9.7 mph 87 % 0.0 in
03:57 17.5 °F 15.5 °F 1016.8 in WSW 6.4 mph 9.7 mph 88 % 0.0 in
04:02 17.4 °F 15.6 °F 1016.8 in West 1.6 mph 9.7 mph 89 % 0.0 in
04:07 17.4 °F 15.6 °F 1016.5 in West 1.6 mph 8.0 mph 89 % 0.3 in
04:12 17.4 °F 15.6 °F 1016.5 in West 1.6 mph 8.0 mph 89 % 0.3 in
04:17 17.3 °F 15.5 °F 1016.8 in NW 1.6 mph 8.0 mph 89 % 0.3 in
04:22 17.3 °F 15.6 °F 1016.8 in West 3.2 mph 8.0 mph 90 % 0.3 in
04:32 17.2 °F 15.7 °F 1016.8 in SW 1.6 mph 9.7 mph 91 % 0.3 in
04:42 17.2 °F 15.7 °F 1016.8 in NW 4.8 mph 8.0 mph 91 % 0.3 in
04:47 17.2 °F 15.7 °F 1016.8 in Calm   8.0 mph 91 % 0.3 in
04:52 17.1 °F 15.8 °F 1017.2 in SSW 3.2 mph 8.0 mph 92 % 0.3 in
04:57 17.1 °F 15.8 °F 1016.8 in WNW 1.6 mph 8.0 mph 92 % 0.3 in
05:02 17.0 °F 15.7 °F 1016.5 in WSW 1.6 mph 6.4 mph 92 % 1.3 in
05:12 16.9 °F 15.8 °F 1016.5 in Calm   4.8 mph 93 % 1.5 in
05:17 16.9 °F 15.8 °F 1016.8 in Calm   4.8 mph 93 % 1.5 in
05:22 16.8 °F 15.7 °F 1016.8 in Calm   3.2 mph 93 % 1.5 in
05:32 16.8 °F 15.8 °F 1017.5 in Calm   3.2 mph 94 % 1.8 in
05:42 16.7 °F 15.7 °F 1017.5 in WSW 3.2 mph 3.2 mph 94 % 2.0 in
05:52 16.5 °F 15.5 °F 1017.2 in South 1.6 mph 4.8 mph 94 % 2.3 in
06:02 16.5 °F 15.5 °F 1017.2 in Calm   4.8 mph 94 % 2.3 in
06:12 16.4 °F 15.6 °F 1017.2 in Calm   3.2 mph 95 % 2.3 in
06:17 16.4 °F 15.4 °F 1017.2 in Calm   3.2 mph 94 % 2.3 in
06:22 16.3 °F 15.5 °F 1017.5 in SSE 3.2 mph   95 % 2.8 in
06:32 16.3 °F 15.5 °F 1017.2 in SW 1.6 mph   95 % 2.8 in
06:37 16.3 °F 15.5 °F 1017.2 in Calm   6.4 mph 95 % 3.3 in
06:42 16.2 °F 15.4 °F 1017.2 in Calm   6.4 mph 95 % 3.3 in
06:47 16.2 °F 15.4 °F 1017.2 in South 1.6 mph 6.4 mph 95 % 3.3 in
06:52 16.2 °F 15.4 °F 1017.5 in SSW 1.6 mph 3.2 mph 95 % 2.0 in
07:02 16.3 °F 15.7 °F 1017.5 in Calm   3.2 mph 96 % 2.0 in
07:12 16.3 °F 15.7 °F 1017.5 in Calm   3.2 mph 96 % 1.3 in
07:17 16.3 °F 15.7 °F 1017.5 in Calm   3.2 mph 96 % 1.3 in
07:22 16.3 °F 15.7 °F 1017.5 in Calm   3.2 mph 96 % 0.5 in
07:32 16.3 °F 15.7 °F 1017.5 in Calm   3.2 mph 96 % 0.3 in
07:42 16.3 °F 15.7 °F 1017.5 in SW 1.6 mph 1.6 mph 96 % 0.0 in
07:52 16.4 °F 15.8 °F 1017.8 in WSW 3.2 mph 3.2 mph 96 % 0.0 in
07:57 16.3 °F 15.7 °F 1017.8 in SW 3.2 mph 3.2 mph 96 % 0.0 in
08:02 16.4 °F 15.8 °F 1017.8 in SW 6.4 mph 9.7 mph 96 % 0.0 in
08:07 16.4 °F 15.8 °F 1018.2 in SSW 6.4 mph 9.7 mph 96 % 0.0 in
08:12 16.5 °F 15.9 °F 1018.2 in SW 4.8 mph 9.7 mph 96 % 0.0 in
08:17 16.5 °F 15.9 °F 1018.2 in Calm   9.7 mph 96 % 0.0 in
08:22 16.6 °F 16.0 °F 1017.8 in Calm   8.0 mph 96 % 0.0 in
08:27 16.6 °F 16.0 °F 1017.8 in SSW 1.6 mph 8.0 mph 96 % 0.0 in
08:32 16.6 °F 16.0 °F 1018.2 in SW 3.2 mph 6.4 mph 96 % 0.0 in
08:42 16.7 °F 16.1 °F 1018.5 in SW 1.6 mph 6.4 mph 96 % 0.0 in
08:47 16.7 °F 16.1 °F 1018.5 in SSW 3.2 mph 6.4 mph 96 % 0.0 in
08:52 16.7 °F 16.1 °F 1018.5 in WSW 3.2 mph 6.4 mph 96 % 0.0 in
08:57 16.7 °F 16.1 °F 1018.5 in WSW 4.8 mph 6.4 mph 96 % 0.0 in
09:02 16.7 °F 16.1 °F 1018.8 in SW 3.2 mph 8.0 mph 96 % 0.0 in
09:12 16.8 °F 16.2 °F 1018.8 in SW 3.2 mph 8.0 mph 96 % 0.3 in
09:17 16.9 °F 16.1 °F 1018.8 in SSW 1.6 mph 8.0 mph 95 % 0.3 in
09:22 16.8 °F 16.0 °F 1018.8 in West 1.6 mph 8.0 mph 95 % 0.3 in
09:32 16.9 °F 16.1 °F 1018.8 in Calm   6.4 mph 95 % 0.3 in
09:37 17.1 °F 16.3 °F 1018.8 in Calm   6.4 mph 95 % 0.3 in
09:42 17.3 °F 16.5 °F 1018.8 in Calm   6.4 mph 95 % 0.3 in
09:47 17.3 °F 16.3 °F 1018.8 in Calm   6.4 mph 94 % 0.3 in
09:52 17.5 °F 16.5 °F 1018.8 in WSW 6.4 mph 6.4 mph 94 % 0.3 in
09:57 17.5 °F 16.4 °F 1018.8 in SW 4.8 mph 4.8 mph 93 % 0.3 in
10:02 17.7 °F 16.6 °F 1018.8 in SW 6.4 mph 9.7 mph 93 % 0.3 in
10:12 17.9 °F 16.8 °F 1018.8 in SSW 3.2 mph 9.7 mph 93 % 0.0 in
10:17 18.1 °F 16.8 °F 1018.8 in South 4.8 mph 9.7 mph 92 % 0.0 in
10:22 18.2 °F 16.9 °F 1018.8 in WSW 3.2 mph 9.7 mph 92 % 0.0 in
10:32 18.6 °F 17.3 °F 1018.8 in SSW 1.6 mph 8.0 mph 92 % 0.0 in
10:42 18.9 °F 16.9 °F 1018.8 in SW 4.8 mph 8.0 mph 88 % 0.0 in
10:52 18.8 °F 16.9 °F 1018.8 in WSW 4.8 mph 11.3 mph 89 % 0.0 in
10:57 18.9 °F 17.2 °F 1018.8 in West 1.6 mph 11.3 mph 90 % 0.0 in
11:02 18.9 °F 16.9 °F 1019.2 in WSW 1.6 mph 11.3 mph 88 % 0.0 in
11:07 19.1 °F 17.2 °F 1018.8 in WSW 1.6 mph 11.3 mph 89 % 0.0 in
11:12 19.2 °F 17.0 °F 1018.8 in West 1.6 mph 6.4 mph 87 % 0.0 in
11:22 19.2 °F 16.8 °F 1019.2 in SW 4.8 mph 8.0 mph 86 % 0.0 in
11:32 19.3 °F 17.1 °F 1019.2 in SW 1.6 mph 11.3 mph 87 % 0.0 in
11:42 19.2 °F 16.6 °F 1019.2 in SW 4.8 mph 11.3 mph 85 % 0.0 in
11:47 19.2 °F 16.4 °F 1019.2 in SW 6.4 mph 11.3 mph 84 % 0.0 in
11:52 19.3 °F 16.9 °F 1019.2 in SW 1.6 mph 12.9 mph 86 % 0.0 in
11:57 19.3 °F 16.9 °F 1019.2 in SW 4.8 mph 12.9 mph 86 % 0.0 in
12:02 19.2 °F 16.6 °F 1019.2 in South 3.2 mph 11.3 mph 85 % 0.0 in
12:12 19.2 °F 16.8 °F 1019.2 in SW 6.4 mph 9.7 mph 86 % 0.0 in
12:17 19.3 °F 17.1 °F 1019.2 in WSW 1.6 mph 9.7 mph 87 % 0.0 in
12:22 19.6 °F 16.8 °F 1019.2 in WNW 6.4 mph 9.7 mph 84 % 0.0 in
12:32 20.3 °F 17.1 °F 1019.2 in WNW 6.4 mph 9.7 mph 82 % 0.0 in
12:37 20.6 °F 17.4 °F 1019.5 in SSW 4.8 mph 9.7 mph 82 % 0.0 in
12:42 20.6 °F 16.6 °F 1019.5 in West 11.3 mph 11.3 mph 78 % 0.0 in
12:47 20.6 °F 16.6 °F 1019.5 in WSW 4.8 mph 9.7 mph 78 % 0.0 in
12:52 20.7 °F 17.3 °F 1019.5 in WNW 4.8 mph 11.3 mph 81 % 0.0 in
13:02 20.4 °F 17.0 °F 1019.5 in WNW 9.7 mph 11.3 mph 81 % 0.0 in
13:12 20.0 °F 17.0 °F 1019.5 in WSW 3.2 mph 14.5 mph 83 % 0.0 in
13:17 19.9 °F 16.7 °F 1019.5 in West 6.4 mph 14.5 mph 82 % 0.0 in
13:22 20.0 °F 16.4 °F 1019.5 in West 6.4 mph 12.9 mph 80 % 0.0 in
13:32 20.2 °F 16.8 °F 1019.5 in WNW 8.0 mph 14.5 mph 81 % 0.0 in
13:42 20.6 °F 16.8 °F 1019.2 in WNW 4.8 mph 12.9 mph 79 % 0.0 in
13:52 20.8 °F 16.4 °F 1019.2 in SW 3.2 mph 12.9 mph 76 % 0.0 in
14:02 21.5 °F 16.5 °F 1019.2 in West 6.4 mph 12.9 mph 73 % 0.0 in
14:07 21.6 °F 17.0 °F 1019.2 in WNW 1.6 mph 12.9 mph 75 % 0.0 in
14:12 21.8 °F 16.1 °F 1019.2 in SW 6.4 mph 11.3 mph 70 % 0.0 in
14:17 22.0 °F 16.7 °F 1019.2 in SSW 3.2 mph 11.3 mph 72 % 0.0 in
14:22 22.3 °F 16.8 °F 1019.2 in West 8.0 mph 11.3 mph 71 % 0.0 in
14:27 22.2 °F 17.1 °F 1018.8 in West 1.6 mph 12.9 mph 73 % 0.0 in
14:32 22.2 °F 17.1 °F 1018.8 in SW 4.8 mph 12.9 mph 73 % 0.0 in
14:42 22.3 °F 17.0 °F 1018.8 in West 9.7 mph 12.9 mph 72 % 0.0 in
14:47 22.4 °F 16.7 °F 1018.8 in West 4.8 mph 14.5 mph 70 % 0.0 in
14:52 22.4 °F 16.4 °F 1018.8 in South 4.8 mph 14.5 mph 69 % 0.0 in
15:02 22.8 °F 16.6 °F 1018.8 in WNW 6.4 mph 16.1 mph 68 % 0.0 in
15:07 22.9 °F 16.9 °F 1018.8 in WNW 4.8 mph 16.1 mph 69 % 0.0 in
15:17 22.9 °F 17.4 °F 1018.8 in West 8.0 mph 17.7 mph 71 % 0.0 in
15:22 22.9 °F 17.6 °F 1018.8 in WSW 8.0 mph 17.7 mph 72 % 0.0 in
15:32 22.8 °F 16.8 °F 1018.8 in WSW 8.0 mph 14.5 mph 69 % 0.0 in
15:37 22.6 °F 16.6 °F 1018.8 in SW 4.8 mph 19.3 mph 69 % 0.0 in
15:42 22.5 °F 16.3 °F 1018.8 in West 4.8 mph 19.3 mph 68 % 0.0 in
15:47 22.5 °F 17.0 °F 1018.8 in WNW 11.3 mph 19.3 mph 71 % 0.0 in
15:52 22.3 °F 17.0 °F 1018.8 in NNW 4.8 mph 19.3 mph 72 % 0.0 in
15:57 22.2 °F 16.9 °F 1018.8 in SSW 6.4 mph 12.9 mph 72 % 0.0 in
16:02 22.3 °F 16.8 °F 1018.8 in NNW 3.2 mph 14.5 mph 71 % 0.0 in
16:12 22.7 °F 17.4 °F 1018.8 in WSW 4.8 mph 14.5 mph 72 % 0.0 in
16:17 22.6 °F 17.1 °F 1018.8 in Calm   11.3 mph 71 % 0.0 in
16:22 22.8 °F 16.8 °F 1018.8 in WNW 3.2 mph 11.3 mph 69 % 0.0 in
16:27 22.6 °F 16.4 °F 1018.8 in WNW 6.4 mph 11.3 mph 68 % 0.0 in
16:32 22.4 °F 16.7 °F 1018.8 in West 4.8 mph 9.7 mph 70 % 0.0 in
16:42 22.4 °F 16.4 °F 1018.8 in WNW 1.6 mph 9.7 mph 69 % 0.0 in
16:47 22.6 °F 16.6 °F 1018.8 in NW 4.8 mph 8.0 mph 69 % 0.0 in
16:52 22.8 °F 16.8 °F 1018.8 in Calm   8.0 mph 69 % 0.0 in
16:57 23.4 °F 16.7 °F 1018.5 in WSW 9.7 mph 9.7 mph 66 % 0.0 in
17:02 23.2 °F 15.8 °F 1018.5 in West 12.9 mph 12.9 mph 63 % 0.0 in
17:12 23.6 °F 16.4 °F 1018.8 in West 3.2 mph 14.5 mph 64 % 0.0 in
17:17 23.2 °F 16.5 °F 1018.8 in NW 6.4 mph 14.5 mph 66 % 0.0 in
17:22 22.8 °F 16.6 °F 1018.8 in WNW 4.8 mph 12.9 mph 68 % 0.0 in
17:32 22.6 °F 16.8 °F 1018.8 in West 3.2 mph 11.3 mph 70 % 0.0 in
17:42 22.9 °F 16.9 °F 1018.8 in NNW 6.4 mph 11.3 mph 69 % 0.0 in
17:52 22.8 °F 16.6 °F 1018.8 in Calm   11.3 mph 68 % 0.0 in
17:57 22.6 °F 16.4 °F 1019.2 in WNW 1.6 mph 9.7 mph 68 % 0.0 in
18:02 22.4 °F 16.7 °F 1019.2 in WNW 1.6 mph 9.7 mph 70 % 0.0 in
18:07 22.5 °F 16.8 °F 1019.2 in West 1.6 mph 9.7 mph 70 % 0.0 in
18:12 22.4 °F 16.2 °F 1019.2 in NNW 6.4 mph 9.7 mph 68 % 0.0 in
18:17 22.4 °F 16.7 °F 1019.2 in WNW 11.3 mph 11.3 mph 70 % 0.0 in
18:22 22.4 °F 16.4 °F 1019.2 in West 6.4 mph 11.3 mph 69 % 0.0 in
18:32 22.9 °F 16.7 °F 1019.2 in NW 6.4 mph 14.5 mph 68 % 0.0 in
18:37 23.1 °F 16.6 °F 1019.2 in SW 3.2 mph 12.9 mph 67 % 0.0 in
18:42 23.2 °F 16.7 °F 1019.2 in NW 3.2 mph 12.9 mph 67 % 0.0 in
18:52 23.1 °F 16.4 °F 1019.2 in NW 9.7 mph 12.9 mph 66 % 0.0 in
18:57 22.9 °F 15.7 °F 1019.2 in NNW 16.1 mph 16.1 mph 64 % 0.0 in
19:02 22.8 °F 15.9 °F 1019.2 in North 6.4 mph 16.1 mph 65 % 0.0 in
19:12 22.7 °F 16.0 °F 1019.2 in WNW 6.4 mph 17.7 mph 66 % 0.0 in
19:17 22.5 °F 16.1 °F 1019.2 in NNW 8.0 mph 17.7 mph 67 % 0.0 in
19:22 22.3 °F 16.1 °F 1019.2 in North 6.4 mph 16.1 mph 68 % 0.0 in
19:32 21.8 °F 15.6 °F 1019.2 in NNW 3.2 mph 14.5 mph 68 % 0.0 in
19:42 21.4 °F 15.7 °F 1019.5 in NW 3.2 mph 16.1 mph 70 % 0.0 in
19:47 21.3 °F 15.8 °F 1019.5 in NNW 3.2 mph 14.5 mph 71 % 0.0 in
19:52 21.3 °F 16.0 °F 1019.5 in North 4.8 mph 14.5 mph 72 % 0.0 in
20:02 21.3 °F 16.5 °F 1019.5 in North 3.2 mph 11.3 mph 74 % 0.0 in
20:12 21.2 °F 16.2 °F 1019.5 in NW 4.8 mph 9.7 mph 73 % 0.0 in
20:17 21.1 °F 16.3 °F 1019.9 in NNE 1.6 mph 8.0 mph 74 % 0.0 in
20:22 21.0 °F 16.4 °F 1019.9 in NNW 1.6 mph 8.0 mph 75 % 0.0 in
20:27 21.0 °F 16.4 °F 1019.9 in North 3.2 mph 8.0 mph 75 % 0.0 in
20:42 20.9 °F 16.3 °F 1019.9 in North 1.6 mph 6.4 mph 75 % 0.0 in
20:47 20.8 °F 16.2 °F 1019.9 in Calm   6.4 mph 75 % 0.0 in
20:52 20.7 °F 16.1 °F 1019.9 in NW 3.2 mph 6.4 mph 75 % 0.0 in
20:57 20.7 °F 16.3 °F 1019.9 in West 1.6 mph 4.8 mph 76 % 0.0 in
21:02 20.6 °F 16.2 °F 1019.9 in Calm   4.8 mph 76 % 0.0 in
21:12 20.2 °F 16.2 °F 1020.2 in Calm   4.8 mph 78 % 0.0 in
21:17 20.0 °F 16.0 °F 1020.2 in Calm   4.8 mph 78 % 0.0 in
21:22 19.8 °F 15.9 °F 1020.2 in Calm   3.2 mph 78 % 0.0 in
21:27 19.7 °F 16.0 °F 1020.2 in Calm   3.2 mph 79 % 0.0 in
21:32 19.6 °F 15.9 °F 1020.5 in Calm   6.4 mph 79 % 0.0 in
21:37 19.4 °F 15.9 °F 1020.5 in Calm   6.4 mph 80 % 0.0 in
21:47 19.2 °F 15.9 °F 1020.5 in NNE 1.6 mph 1.6 mph 81 % 0.0 in
21:52 18.9 °F 15.8 °F 1020.5 in Calm   1.6 mph 82 % 0.0 in
21:57 18.9 °F 15.8 °F 1020.9 in Calm   3.2 mph 82 % 0.0 in
22:02 18.8 °F 15.7 °F 1020.9 in Calm   3.2 mph 82 % 0.0 in
22:12 18.6 °F 15.7 °F 1020.9 in Calm   3.2 mph 83 % 0.0 in
22:17 18.6 °F 15.7 °F 1021.2 in Calm   1.6 mph 83 % 0.0 in
22:22 18.4 °F 15.6 °F 1021.2 in Calm     84 % 0.0 in
22:32 18.3 °F 15.5 °F 1021.2 in NW 1.6 mph 6.4 mph 84 % 0.0 in
22:42 18.1 °F 15.4 °F 1021.6 in Calm   6.4 mph 84 % 0.0 in
22:47 18.0 °F 15.3 °F 1021.6 in NNW 1.6 mph 6.4 mph 84 % 0.0 in
22:52 17.9 °F 15.2 °F 1021.6 in WNW 1.6 mph 6.4 mph 84 % 0.0 in
22:57 17.9 °F 15.0 °F 1021.6 in NNW 1.6 mph 4.8 mph 83 % 0.0 in
23:02 17.9 °F 15.0 °F 1021.6 in NE 6.4 mph 6.4 mph 83 % 0.0 in
23:12 17.8 °F 14.9 °F 1021.6 in Calm   9.7 mph 83 % 0.0 in
23:17 17.7 °F 14.8 °F 1021.6 in Calm   9.7 mph 83 % 0.0 in
23:22 17.7 °F 14.8 °F 1021.6 in NNW 1.6 mph 9.7 mph 83 % 0.0 in
23:32 17.6 °F 14.7 °F 1021.6 in North 1.6 mph 9.7 mph 83 % 0.0 in
23:42 17.7 °F 14.6 °F 1021.9 in NNW 3.2 mph 8.0 mph 82 % 0.0 in
23:47 17.6 °F 14.5 °F 1021.9 in NNW 3.2 mph 4.8 mph 82 % 0.0 in
23:52 17.5 °F 14.4 °F 1021.6 in NNW 1.6 mph 4.8 mph 82 % 0.0 in
23:57 17.4 °F 14.1 °F 1021.6 in NW 1.6 mph 4.8 mph 81 % 0.0 in
Meteo18
Compliments of Weather Underground - 4 mb

Script developed by  Jim McMurry - jmcmurry@mwt.net Adapted for the template by  Wim van der Kuil - Leuven-Template.eu

You find our weather info also at:

European Weather Network

Weather Underground

Equipment we use:

Weather-station
Davis Vue

Weather-program
Meteobridge

Weather-server
Raspberry PI 2 B+

Provider
1 and 1

Davis Vue

Meteobridge

Raspberry PI 2 B+

1 and 1